sensor_id;sensor_type;location;lat;lon;timestamp;pressure;altitude;pressure_sealevel;temperature;humidity
42591;BME280;28218;53.342;-6.216;2023-10-19T00:00:56;97699.06;;;13.76;100.00
42591;BME280;28218;53.342;-6.216;2023-10-19T00:03:24;97699.06;;;13.76;100.00
42591;BME280;28218;53.342;-6.216;2023-10-19T00:05:55;97702.00;;;13.80;100.00
42591;BME280;28218;53.342;-6.216;2023-10-19T00:08:25;97691.94;;;13.77;100.00
42591;BME280;28218;53.342;-6.216;2023-10-19T00:11:03;97693.28;;;13.79;100.00
42591;BME280;28218;53.342;-6.216;2023-10-19T00:13:36;97693.00;;;13.81;100.00
42591;BME280;28218;53.342;-6.216;2023-10-19T00:16:05;97692.47;;;13.79;100.00
42591;BME280;28218;53.342;-6.216;2023-10-19T00:18:39;97682.69;;;13.79;100.00
42591;BME280;28218;53.342;-6.216;2023-10-19T00:21:09;97683.47;;;13.80;100.00
42591;BME280;28218;53.342;-6.216;2023-10-19T00:23:47;97668.38;;;13.80;100.00
42591;BME280;28218;53.342;-6.216;2023-10-19T00:26:16;97667.88;;;13.78;100.00
42591;BME280;28218;53.342;-6.216;2023-10-19T00:28:47;97666.25;;;13.77;100.00
42591;BME280;28218;53.342;-6.216;2023-10-19T00:31:19;97667.59;;;13.75;100.00
42591;BME280;28218;53.342;-6.216;2023-10-19T00:33:48;97657.00;;;13.75;100.00
42591;BME280;28218;53.342;-6.216;2023-10-19T00:36:18;97655.66;;;13.72;100.00
42591;BME280;28218;53.342;-6.216;2023-10-19T00:38:50;97651.72;;;13.70;100.00
42591;BME280;28218;53.342;-6.216;2023-10-19T00:41:21;97653.00;;;13.67;100.00
42591;BME280;28218;53.342;-6.216;2023-10-19T00:43:51;97655.94;;;13.71;100.00
42591;BME280;28218;53.342;-6.216;2023-10-19T00:46:24;97645.09;;;13.72;100.00
42591;BME280;28218;53.342;-6.216;2023-10-19T00:49:02;97643.22;;;13.73;100.00
42591;BME280;28218;53.342;-6.216;2023-10-19T00:51:36;97639.28;;;13.75;100.00
42591;BME280;28218;53.342;-6.216;2023-10-19T00:54:23;97630.00;;;13.78;100.00
42591;BME280;28218;53.342;-6.216;2023-10-19T00:56:59;97630.81;;;13.78;100.00
42591;BME280;28218;53.342;-6.216;2023-10-19T00:59:32;97630.28;;;13.76;100.00
42591;BME280;28218;53.342;-6.216;2023-10-19T01:02:09;97621.53;;;13.71;100.00
42591;BME280;28218;53.342;-6.216;2023-10-19T01:04:56;97610.69;;;13.67;100.00
42591;BME280;28218;53.342;-6.216;2023-10-19T01:07:27;97617.31;;;13.70;100.00
42591;BME280;28218;53.342;-6.216;2023-10-19T01:10:00;97612.28;;;13.73;100.00
42591;BME280;28218;53.342;-6.216;2023-10-19T01:12:31;97611.47;;;13.73;100.00
42591;BME280;28218;53.342;-6.216;2023-10-19T01:15:08;97605.13;;;13.69;100.00
42591;BME280;28218;53.342;-6.216;2023-10-19T01:17:44;97601.16;;;13.66;100.00
42591;BME280;28218;53.342;-6.216;2023-10-19T01:20:16;97609.38;;;13.65;100.00
42591;BME280;28218;53.342;-6.216;2023-10-19T01:22:51;97601.44;;;13.65;100.00
42591;BME280;28218;53.342;-6.216;2023-10-19T01:25:42;97592.97;;;13.63;100.00
42591;BME280;28218;53.342;-6.216;2023-10-19T01:28:13;97590.06;;;13.69;100.00
42591;BME280;28218;53.342;-6.216;2023-10-19T01:30:44;97587.66;;;13.73;100.00
42591;BME280;28218;53.342;-6.216;2023-10-19T01:33:19;97587.66;;;13.68;100.00
42591;BME280;28218;53.342;-6.216;2023-10-19T01:35:47;97576.56;;;13.66;100.00
42591;BME280;28218;53.342;-6.216;2023-10-19T01:38:34;97570.72;;;13.64;100.00
42591;BME280;28218;53.342;-6.216;2023-10-19T01:41:04;97565.44;;;13.64;100.00
42591;BME280;28218;53.342;-6.216;2023-10-19T01:43:34;97568.09;;;13.64;100.00
42591;BME280;28218;53.342;-6.216;2023-10-19T01:46:08;97559.09;;;13.65;100.00
42591;BME280;28218;53.342;-6.216;2023-10-19T01:48:49;97552.22;;;13.64;100.00
42591;BME280;28218;53.342;-6.216;2023-10-19T01:51:22;97550.63;;;13.63;100.00
42591;BME280;28218;53.342;-6.216;2023-10-19T01:53:51;97547.97;;;13.63;100.00
42591;BME280;28218;53.342;-6.216;2023-10-19T01:56:19;97541.63;;;13.64;100.00
42591;BME280;28218;53.342;-6.216;2023-10-19T01:58:49;97536.88;;;13.66;100.00
42591;BME280;28218;53.342;-6.216;2023-10-19T02:01:18;97535.81;;;13.67;100.00
42591;BME280;28218;53.342;-6.216;2023-10-19T02:03:50;97529.72;;;13.66;100.00
42591;BME280;28218;53.342;-6.216;2023-10-19T02:06:25;97522.31;;;13.68;100.00
42591;BME280;28218;53.342;-6.216;2023-10-19T02:09:00;97518.34;;;13.71;100.00
42591;BME280;28218;53.342;-6.216;2023-10-19T02:11:36;97510.41;;;13.71;100.00
42591;BME280;28218;53.342;-6.216;2023-10-19T02:14:04;97501.94;;;13.69;100.00
42591;BME280;28218;53.342;-6.216;2023-10-19T02:16:41;97499.28;;;13.69;100.00
42591;BME280;28218;53.342;-6.216;2023-10-19T02:19:10;97498.50;;;13.68;100.00
42591;BME280;28218;53.342;-6.216;2023-10-19T02:21:39;97488.97;;;13.67;100.00
42591;BME280;28218;53.342;-6.216;2023-10-19T02:24:10;97485.03;;;13.70;100.00
42591;BME280;28218;53.342;-6.216;2023-10-19T02:26:41;97476.03;;;13.71;100.00
42591;BME280;28218;53.342;-6.216;2023-10-19T02:29:09;97469.66;;;13.72;100.00
42591;BME280;28218;53.342;-6.216;2023-10-19T02:31:40;97465.94;;;13.73;100.00
42591;BME280;28218;53.342;-6.216;2023-10-19T02:34:09;97451.69;;;13.74;100.00
42591;BME280;28218;53.342;-6.216;2023-10-19T02:36:38;97448.50;;;13.72;100.00
42591;BME280;28218;53.342;-6.216;2023-10-19T02:39:08;97444.28;;;13.71;100.00
42591;BME280;28218;53.342;-6.216;2023-10-19T02:41:38;97440.28;;;13.73;100.00
42591;BME280;28218;53.342;-6.216;2023-10-19T02:44:08;97434.47;;;13.71;100.00
42591;BME280;28218;53.342;-6.216;2023-10-19T02:46:41;97428.66;;;13.69;100.00
42591;BME280;28218;53.342;-6.216;2023-10-19T02:49:11;97415.44;;;13.69;100.00
42591;BME280;28218;53.342;-6.216;2023-10-19T02:51:42;97411.97;;;13.69;100.00
42591;BME280;28218;53.342;-6.216;2023-10-19T02:54:13;97399.81;;;13.68;100.00
42591;BME280;28218;53.342;-6.216;2023-10-19T02:56:45;97392.16;;;13.66;100.00
42591;BME280;28218;53.342;-6.216;2023-10-19T02:59:17;97377.88;;;13.62;100.00
42591;BME280;28218;53.342;-6.216;2023-10-19T03:01:49;97372.88;;;13.61;100.00
42591;BME280;28218;53.342;-6.216;2023-10-19T03:04:18;97380.03;;;13.60;100.00
42591;BME280;28218;53.342;-6.216;2023-10-19T03:06:47;97375.75;;;13.59;100.00
42591;BME280;28218;53.342;-6.216;2023-10-19T03:09:17;97368.09;;;13.63;100.00
42591;BME280;28218;53.342;-6.216;2023-10-19T03:11:49;97358.56;;;13.62;100.00
42591;BME280;28218;53.342;-6.216;2023-10-19T03:14:20;97355.94;;;13.62;100.00
42591;BME280;28218;53.342;-6.216;2023-10-19T03:16:47;97354.06;;;13.62;100.00
42591;BME280;28218;53.342;-6.216;2023-10-19T03:19:16;97349.03;;;13.66;100.00
42591;BME280;28218;53.342;-6.216;2023-10-19T03:21:43;97343.75;;;13.66;100.00
42591;BME280;28218;53.342;-6.216;2023-10-19T03:24:18;97342.69;;;13.67;100.00
42591;BME280;28218;53.342;-6.216;2023-10-19T03:26:50;97345.84;;;13.64;100.00
42591;BME280;28218;53.342;-6.216;2023-10-19T03:29:21;97339.78;;;13.63;100.00
42591;BME280;28218;53.342;-6.216;2023-10-19T03:31:52;97335.81;;;13.66;100.00
42591;BME280;28218;53.342;-6.216;2023-10-19T03:34:20;97332.09;;;13.67;100.00
42591;BME280;28218;53.342;-6.216;2023-10-19T03:36:50;97333.69;;;13.68;100.00
42591;BME280;28218;53.342;-6.216;2023-10-19T03:39:20;97327.31;;;13.69;100.00
42591;BME280;28218;53.342;-6.216;2023-10-19T03:41:49;97328.13;;;13.69;100.00
42591;BME280;28218;53.342;-6.216;2023-10-19T03:44:19;97329.44;;;13.72;100.00
42591;BME280;28218;53.342;-6.216;2023-10-19T03:46:51;97322.28;;;13.72;100.00
42591;BME280;28218;53.342;-6.216;2023-10-19T03:49:25;97315.69;;;13.75;100.00
42591;BME280;28218;53.342;-6.216;2023-10-19T03:52:00;97308.53;;;13.75;100.00
42591;BME280;28218;53.342;-6.216;2023-10-19T03:54:48;97300.59;;;13.75;100.00
42591;BME280;28218;53.342;-6.216;2023-10-19T03:57:18;97312.50;;;13.73;100.00
42591;BME280;28218;53.342;-6.216;2023-10-19T03:59:51;97303.22;;;13.75;100.00
42591;BME280;28218;53.342;-6.216;2023-10-19T04:02:23;97297.66;;;13.77;100.00
42591;BME280;28218;53.342;-6.216;2023-10-19T04:04:52;97296.34;;;13.79;100.00
42591;BME280;28218;53.342;-6.216;2023-10-19T04:07:22;97303.22;;;13.80;100.00
42591;BME280;28218;53.342;-6.216;2023-10-19T04:09:54;97278.31;;;13.81;100.00
42591;BME280;28218;53.342;-6.216;2023-10-19T04:12:37;97280.19;;;13.81;100.00
42591;BME280;28218;53.342;-6.216;2023-10-19T04:15:09;97276.75;;;13.80;100.00
42591;BME280;28218;53.342;-6.216;2023-10-19T04:17:39;97276.50;;;13.77;100.00
42591;BME280;28218;53.342;-6.216;2023-10-19T04:20:10;97274.63;;;13.77;100.00
42591;BME280;28218;53.342;-6.216;2023-10-19T04:22:55;97268.84;;;13.75;100.00
42591;BME280;28218;53.342;-6.216;2023-10-19T04:25:27;97263.81;;;13.79;100.00
42591;BME280;28218;53.342;-6.216;2023-10-19T04:27:56;97269.09;;;13.79;100.00
42591;BME280;28218;53.342;-6.216;2023-10-19T04:30:24;97268.31;;;13.78;100.00
42591;BME280;28218;53.342;-6.216;2023-10-19T04:32:53;97256.38;;;13.81;100.00
42591;BME280;28218;53.342;-6.216;2023-10-19T04:35:25;97244.72;;;13.82;100.00
42591;BME280;28218;53.342;-6.216;2023-10-19T04:37:57;97234.13;;;13.82;100.00
42591;BME280;28218;53.342;-6.216;2023-10-19T04:40:28;97242.06;;;13.82;100.00
42591;BME280;28218;53.342;-6.216;2023-10-19T04:42:56;97229.38;;;13.84;100.00
42591;BME280;28218;53.342;-6.216;2023-10-19T04:45:24;97225.13;;;13.83;100.00
42591;BME280;28218;53.342;-6.216;2023-10-19T04:47:53;97230.19;;;13.79;100.00
42591;BME280;28218;53.342;-6.216;2023-10-19T04:50:22;97229.13;;;13.80;100.00
42591;BME280;28218;53.342;-6.216;2023-10-19T04:52:50;97224.63;;;13.81;100.00
42591;BME280;28218;53.342;-6.216;2023-10-19T04:55:18;97220.09;;;13.81;100.00
42591;BME280;28218;53.342;-6.216;2023-10-19T04:57:48;97220.91;;;13.82;100.00
42591;BME280;28218;53.342;-6.216;2023-10-19T05:00:18;97216.16;;;13.79;100.00
42591;BME280;28218;53.342;-6.216;2023-10-19T05:02:47;97215.09;;;13.80;100.00
42591;BME280;28218;53.342;-6.216;2023-10-19T05:05:19;97219.31;;;13.81;100.00
42591;BME280;28218;53.342;-6.216;2023-10-19T05:07:47;97214.03;;;13.81;100.00
42591;BME280;28218;53.342;-6.216;2023-10-19T05:10:16;97210.31;;;13.82;100.00
42591;BME280;28218;53.342;-6.216;2023-10-19T05:12:44;97214.81;;;13.81;100.00
42591;BME280;28218;53.342;-6.216;2023-10-19T05:15:14;97208.44;;;13.82;100.00
42591;BME280;28218;53.342;-6.216;2023-10-19T05:17:42;97198.66;;;13.83;100.00
42591;BME280;28218;53.342;-6.216;2023-10-19T05:20:11;97196.56;;;13.80;100.00
42591;BME280;28218;53.342;-6.216;2023-10-19T05:22:39;97200.78;;;13.81;100.00
42591;BME280;28218;53.342;-6.216;2023-10-19T05:25:08;97189.72;;;13.79;100.00
42591;BME280;28218;53.342;-6.216;2023-10-19T05:27:37;97187.31;;;13.77;100.00
42591;BME280;28218;53.342;-6.216;2023-10-19T05:30:07;97191.03;;;13.76;100.00
42591;BME280;28218;53.342;-6.216;2023-10-19T05:32:38;97181.78;;;13.79;100.00
42591;BME280;28218;53.342;-6.216;2023-10-19T05:35:07;97189.72;;;13.79;100.00
42591;BME280;28218;53.342;-6.216;2023-10-19T05:37:40;97186.78;;;13.80;100.00
42591;BME280;28218;53.342;-6.216;2023-10-19T05:40:09;97173.84;;;13.79;100.00
42591;BME280;28218;53.342;-6.216;2023-10-19T05:42:41;97179.13;;;13.79;100.00
42591;BME280;28218;53.342;-6.216;2023-10-19T05:45:10;97180.69;;;13.80;100.00
42591;BME280;28218;53.342;-6.216;2023-10-19T05:47:41;97181.78;;;13.79;100.00
42591;BME280;28218;53.342;-6.216;2023-10-19T05:50:10;97169.31;;;13.79;100.00
42591;BME280;28218;53.342;-6.216;2023-10-19T05:52:41;97169.03;;;13.81;100.00
42591;BME280;28218;53.342;-6.216;2023-10-19T05:55:10;97164.53;;;13.81;100.00
42591;BME280;28218;53.342;-6.216;2023-10-19T05:57:39;97161.09;;;13.81;100.00
42591;BME280;28218;53.342;-6.216;2023-10-19T06:00:09;97156.59;;;13.81;100.00
42591;BME280;28218;53.342;-6.216;2023-10-19T06:02:43;97145.22;;;13.81;100.00
42591;BME280;28218;53.342;-6.216;2023-10-19T06:05:13;97148.16;;;13.79;100.00
42591;BME280;28218;53.342;-6.216;2023-10-19T06:07:43;97141.00;;;13.80;100.00
42591;BME280;28218;53.342;-6.216;2023-10-19T06:10:14;97133.84;;;13.80;100.00
42591;BME280;28218;53.342;-6.216;2023-10-19T06:12:44;97134.69;;;13.76;100.00
42591;BME280;28218;53.342;-6.216;2023-10-19T06:15:13;97125.19;;;13.75;100.00
42591;BME280;28218;53.342;-6.216;2023-10-19T06:17:43;97128.06;;;13.73;100.00
42591;BME280;28218;53.342;-6.216;2023-10-19T06:20:13;97135.22;;;13.73;100.00
42591;BME280;28218;53.342;-6.216;2023-10-19T06:22:52;97135.22;;;13.73;100.00
42591;BME280;28218;53.342;-6.216;2023-10-19T06:25:22;97127.03;;;13.74;100.00
42591;BME280;28218;53.342;-6.216;2023-10-19T06:27:51;97133.13;;;13.75;100.00
42591;BME280;28218;53.342;-6.216;2023-10-19T06:30:20;97131.78;;;13.72;100.00
42591;BME280;28218;53.342;-6.216;2023-10-19T06:32:53;97129.94;;;13.73;100.00
42591;BME280;28218;53.342;-6.216;2023-10-19T06:35:22;97131.78;;;13.72;100.00
42591;BME280;28218;53.342;-6.216;2023-10-19T06:37:50;97134.44;;;13.72;100.00
42591;BME280;28218;53.342;-6.216;2023-10-19T06:40:19;97134.72;;;13.71;100.00
42591;BME280;28218;53.342;-6.216;2023-10-19T06:42:47;97142.13;;;13.74;100.00
42591;BME280;28218;53.342;-6.216;2023-10-19T06:45:16;97147.13;;;13.75;100.00
42591;BME280;28218;53.342;-6.216;2023-10-19T06:47:46;97146.34;;;13.75;100.00
42591;BME280;28218;53.342;-6.216;2023-10-19T06:50:17;97146.59;;;13.78;100.00
42591;BME280;28218;53.342;-6.216;2023-10-19T06:52:47;97144.97;;;13.77;100.00
42591;BME280;28218;53.342;-6.216;2023-10-19T06:55:17;97140.47;;;13.78;100.00
42591;BME280;28218;53.342;-6.216;2023-10-19T06:57:48;97151.06;;;13.78;100.00
42591;BME280;28218;53.342;-6.216;2023-10-19T07:00:17;97147.09;;;13.80;100.00
42591;BME280;28218;53.342;-6.216;2023-10-19T07:02:47;97152.09;;;13.82;100.00
42591;BME280;28218;53.342;-6.216;2023-10-19T07:05:19;97145.22;;;13.81;100.00
42591;BME280;28218;53.342;-6.216;2023-10-19T07:07:49;97149.19;;;13.84;100.00
42591;BME280;28218;53.342;-6.216;2023-10-19T07:10:19;97149.97;;;13.84;100.00
42591;BME280;28218;53.342;-6.216;2023-10-19T07:12:50;97150.78;;;13.85;100.00
42591;BME280;28218;53.342;-6.216;2023-10-19T07:15:20;97147.84;;;13.86;100.00
42591;BME280;28218;53.342;-6.216;2023-10-19T07:17:50;97142.53;;;13.86;100.00
42591;BME280;28218;53.342;-6.216;2023-10-19T07:20:21;97144.13;;;13.87;100.00
42591;BME280;28218;53.342;-6.216;2023-10-19T07:22:59;97135.38;;;13.87;100.00
42591;BME280;28218;53.342;-6.216;2023-10-19T07:25:34;97132.75;;;13.87;100.00
42591;BME280;28218;53.342;-6.216;2023-10-19T07:28:10;97138.56;;;13.89;100.00
42591;BME280;28218;53.342;-6.216;2023-10-19T07:30:40;97135.91;;;13.89;100.00
42591;BME280;28218;53.342;-6.216;2023-10-19T07:33:08;97138.00;;;13.92;100.00
42591;BME280;28218;53.342;-6.216;2023-10-19T07:35:38;97134.03;;;13.94;100.00
42591;BME280;28218;53.342;-6.216;2023-10-19T07:38:09;97133.72;;;13.96;100.00
42591;BME280;28218;53.342;-6.216;2023-10-19T07:40:37;97139.03;;;13.96;100.00
42591;BME280;28218;53.342;-6.216;2023-10-19T07:43:06;97130.31;;;13.95;100.00
42591;BME280;28218;53.342;-6.216;2023-10-19T07:45:35;97124.47;;;13.98;100.00
42591;BME280;28218;53.342;-6.216;2023-10-19T07:48:04;97132.13;;;14.00;100.00
42591;BME280;28218;53.342;-6.216;2023-10-19T07:50:34;97132.63;;;14.02;100.00
42591;BME280;28218;53.342;-6.216;2023-10-19T07:53:05;97132.63;;;14.02;100.00
42591;BME280;28218;53.342;-6.216;2023-10-19T07:55:33;97129.19;;;14.01;100.00
42591;BME280;28218;53.342;-6.216;2023-10-19T07:58:01;97134.22;;;14.03;100.00
42591;BME280;28218;53.342;-6.216;2023-10-19T08:00:30;97130.78;;;14.02;100.00
42591;BME280;28218;53.342;-6.216;2023-10-19T08:03:01;97127.06;;;14.03;100.00
42591;BME280;28218;53.342;-6.216;2023-10-19T08:05:30;97133.16;;;14.04;100.00
42591;BME280;28218;53.342;-6.216;2023-10-19T08:07:58;97128.63;;;14.04;100.00
42591;BME280;28218;53.342;-6.216;2023-10-19T08:10:29;97128.63;;;14.04;100.00
42591;BME280;28218;53.342;-6.216;2023-10-19T08:12:57;97130.22;;;14.05;100.00
42591;BME280;28218;53.342;-6.216;2023-10-19T08:15:26;97129.66;;;14.09;100.00
42591;BME280;28218;53.342;-6.216;2023-10-19T08:17:57;97123.59;;;14.08;100.00
42591;BME280;28218;53.342;-6.216;2023-10-19T08:20:26;97118.28;;;14.08;100.00
42591;BME280;28218;53.342;-6.216;2023-10-19T08:22:59;97128.09;;;14.07;100.00
42591;BME280;28218;53.342;-6.216;2023-10-19T08:25:31;97125.69;;;14.06;100.00
42591;BME280;28218;53.342;-6.216;2023-10-19T08:28:19;97127.31;;;14.07;100.00
42591;BME280;28218;53.342;-6.216;2023-10-19T08:30:47;97119.06;;;14.09;100.00
42591;BME280;28218;53.342;-6.216;2023-10-19T08:33:25;97118.78;;;14.10;100.00
42591;BME280;28218;53.342;-6.216;2023-10-19T08:35:53;97123.81;;;14.12;100.00
42591;BME280;28218;53.342;-6.216;2023-10-19T08:38:23;97119.03;;;14.14;100.00
42591;BME280;28218;53.342;-6.216;2023-10-19T08:40:53;97118.75;;;14.15;100.00
42591;BME280;28218;53.342;-6.216;2023-10-19T08:43:23;97116.38;;;14.14;100.00
42591;BME280;28218;53.342;-6.216;2023-10-19T08:45:53;97117.94;;;14.15;100.00
42591;BME280;28218;53.342;-6.216;2023-10-19T08:48:22;97116.38;;;14.14;100.00
42591;BME280;28218;53.342;-6.216;2023-10-19T08:50:51;97116.09;;;14.15;100.00
42591;BME280;28218;53.342;-6.216;2023-10-19T08:53:24;97113.44;;;14.15;100.00
42591;BME280;28218;53.342;-6.216;2023-10-19T08:55:54;97109.50;;;14.13;100.00
42591;BME280;28218;53.342;-6.216;2023-10-19T08:58:22;97112.41;;;14.11;100.00
42591;BME280;28218;53.342;-6.216;2023-10-19T09:00:51;97111.63;;;14.11;100.00
42591;BME280;28218;53.342;-6.216;2023-10-19T09:03:23;97116.94;;;14.11;100.00
42591;BME280;28218;53.342;-6.216;2023-10-19T09:05:53;97117.72;;;14.11;100.00
42591;BME280;28218;53.342;-6.216;2023-10-19T09:08:21;97111.63;;;14.11;100.00
42591;BME280;28218;53.342;-6.216;2023-10-19T09:10:50;97116.94;;;14.11;100.00
42591;BME280;28218;53.342;-6.216;2023-10-19T09:13:22;97113.72;;;14.14;100.00
42591;BME280;28218;53.342;-6.216;2023-10-19T09:15:52;97114.22;;;14.16;100.00
42591;BME280;28218;53.342;-6.216;2023-10-19T09:18:23;97114.28;;;14.11;100.00
42591;BME280;28218;53.342;-6.216;2023-10-19T09:20:55;97116.16;;;14.10;100.00
42591;BME280;28218;53.342;-6.216;2023-10-19T09:23:30;97116.38;;;14.14;100.00
42591;BME280;28218;53.342;-6.216;2023-10-19T09:25:59;97113.72;;;14.14;100.00
42591;BME280;28218;53.342;-6.216;2023-10-19T09:28:31;97110.31;;;14.13;100.00
42591;BME280;28218;53.342;-6.216;2023-10-19T09:31:01;97107.94;;;14.12;100.00
42591;BME280;28218;53.342;-6.216;2023-10-19T09:33:32;97115.31;;;14.15;100.00
42591;BME280;28218;53.342;-6.216;2023-10-19T09:36:03;97110.78;;;14.15;100.00
42591;BME280;28218;53.342;-6.216;2023-10-19T09:38:44;97103.09;;;14.19;100.00
42591;BME280;28218;53.342;-6.216;2023-10-19T09:41:17;97108.38;;;14.19;100.00
42591;BME280;28218;53.342;-6.216;2023-10-19T09:43:47;97108.63;;;14.22;100.00
42591;BME280;28218;53.342;-6.216;2023-10-19T09:46:21;97110.94;;;14.29;100.00
42591;BME280;28218;53.342;-6.216;2023-10-19T09:48:50;97115.41;;;14.33;100.00
42591;BME280;28218;53.342;-6.216;2023-10-19T09:51:19;97113.47;;;14.39;100.00
42591;BME280;28218;53.342;-6.216;2023-10-19T09:53:53;97117.69;;;14.45;100.00
42591;BME280;28218;53.342;-6.216;2023-10-19T09:56:30;97115.00;;;14.50;100.00
42591;BME280;28218;53.342;-6.216;2023-10-19T09:59:05;97113.94;;;14.51;100.00
42591;BME280;28218;53.342;-6.216;2023-10-19T10:02:06;97109.94;;;14.54;100.00
42591;BME280;28218;53.342;-6.216;2023-10-19T10:04:35;97113.88;;;14.56;100.00
42591;BME280;28218;53.342;-6.216;2023-10-19T10:07:05;97117.59;;;14.55;100.00
42591;BME280;28218;53.342;-6.216;2023-10-19T10:09:35;97128.13;;;14.61;100.00
42591;BME280;28218;53.342;-6.216;2023-10-19T10:12:18;97121.75;;;14.62;100.00
42591;BME280;28218;53.342;-6.216;2023-10-19T10:14:58;97116.16;;;14.63;100.00
42591;BME280;28218;53.342;-6.216;2023-10-19T10:17:28;97121.44;;;14.68;100.00
42591;BME280;28218;53.342;-6.216;2023-10-19T10:20:30;97114.53;;;14.67;100.00
42591;BME280;28218;53.342;-6.216;2023-10-19T10:23:18;97107.91;;;14.70;100.00
42591;BME280;28218;53.342;-6.216;2023-10-19T10:25:49;97112.06;;;14.76;100.00
42591;BME280;28218;53.342;-6.216;2023-10-19T10:28:18;97106.69;;;14.81;100.00
42591;BME280;28218;53.342;-6.216;2023-10-19T10:31:21;97107.66;;;14.90;100.00
42591;BME280;28218;53.342;-6.216;2023-10-19T10:33:50;97101.66;;;15.03;100.00
42591;BME280;28218;53.342;-6.216;2023-10-19T10:36:21;97109.78;;;15.12;100.00
42591;BME280;28218;53.342;-6.216;2023-10-19T10:38:50;97108.06;;;15.21;100.00
42591;BME280;28218;53.342;-6.216;2023-10-19T10:41:22;97110.06;;;15.29;100.00
42591;BME280;28218;53.342;-6.216;2023-10-19T10:43:54;97115.56;;;15.33;100.00
42591;BME280;28218;53.342;-6.216;2023-10-19T10:46:26;97115.50;;;15.38;100.00
42591;BME280;28218;53.342;-6.216;2023-10-19T10:48:56;97113.66;;;15.39;100.00
42591;BME280;28218;53.342;-6.216;2023-10-19T10:51:27;97110.72;;;15.40;100.00
42591;BME280;28218;53.342;-6.216;2023-10-19T10:53:57;97117.19;;;15.34;100.00
42591;BME280;28218;53.342;-6.216;2023-10-19T10:56:26;97115.56;;;15.33;100.00
42591;BME280;28218;53.342;-6.216;2023-10-19T10:58:55;97111.41;;;15.27;100.00
42591;BME280;28218;53.342;-6.216;2023-10-19T11:01:31;97099.38;;;15.16;100.00
42591;BME280;28218;53.342;-6.216;2023-10-19T11:04:08;97093.50;;;15.19;100.00
42591;BME280;28218;53.342;-6.216;2023-10-19T11:06:50;97091.13;;;15.17;100.00
42591;BME280;28218;53.342;-6.216;2023-10-19T11:09:19;97091.28;;;15.26;100.00
42591;BME280;28218;53.342;-6.216;2023-10-19T11:11:48;97085.34;;;15.34;100.00
42591;BME280;28218;53.342;-6.216;2023-10-19T11:14:19;97092.06;;;15.45;100.00
42591;BME280;28218;53.342;-6.216;2023-10-19T11:16:51;97087.41;;;15.56;100.00
42591;BME280;28218;53.342;-6.216;2023-10-19T11:19:20;97081.69;;;15.68;100.00
42591;BME280;28218;53.342;-6.216;2023-10-19T11:21:53;97082.78;;;15.80;100.00
42591;BME280;28218;53.342;-6.216;2023-10-19T11:24:27;97082.25;;;15.97;100.00
42591;BME280;28218;53.342;-6.216;2023-10-19T11:27:00;97085.94;;;16.15;100.00
42591;BME280;28218;53.342;-6.216;2023-10-19T11:29:29;97091.97;;;16.34;100.00
42591;BME280;28218;53.342;-6.216;2023-10-19T11:31:59;97098.19;;;16.57;100.00
42591;BME280;28218;53.342;-6.216;2023-10-19T11:34:29;97100.28;;;16.74;100.00
42591;BME280;28218;53.342;-6.216;2023-10-19T11:37:02;97092.28;;;16.88;100.00
42591;BME280;28218;53.342;-6.216;2023-10-19T11:39:31;97081.16;;;16.86;100.00
42591;BME280;28218;53.342;-6.216;2023-10-19T11:42:00;97070.34;;;16.82;100.00
42591;BME280;28218;53.342;-6.216;2023-10-19T11:44:28;97063.03;;;16.88;100.00
42591;BME280;28218;53.342;-6.216;2023-10-19T11:46:58;97056.25;;;16.96;100.00
42591;BME280;28218;53.342;-6.216;2023-10-19T11:49:27;97054.00;;;16.89;100.00
42591;BME280;28218;53.342;-6.216;2023-10-19T11:51:55;97042.50;;;16.80;100.00
42591;BME280;28218;53.342;-6.216;2023-10-19T11:54:24;97028.09;;;16.67;100.00
42591;BME280;28218;53.342;-6.216;2023-10-19T11:56:53;97021.91;;;16.58;100.00
42591;BME280;28218;53.342;-6.216;2023-10-19T11:59:21;97019.72;;;16.60;100.00
42591;BME280;28218;53.342;-6.216;2023-10-19T12:01:50;97019.13;;;16.63;100.00
42591;BME280;28218;53.342;-6.216;2023-10-19T12:04:20;97010.47;;;16.71;100.00
42591;BME280;28218;53.342;-6.216;2023-10-19T12:06:48;97018.72;;;16.70;100.00
42591;BME280;28218;53.342;-6.216;2023-10-19T12:09:16;97016.91;;;16.56;100.00
42591;BME280;28218;53.342;-6.216;2023-10-19T12:11:45;97014.25;;;16.43;100.00
42591;BME280;28218;53.342;-6.216;2023-10-19T12:14:15;97012.47;;;16.38;100.00
42591;BME280;28218;53.342;-6.216;2023-10-19T12:16:43;97010.09;;;16.50;100.00
42591;BME280;28218;53.342;-6.216;2023-10-19T12:19:12;97007.81;;;16.57;100.00
42591;BME280;28218;53.342;-6.216;2023-10-19T12:21:44;97014.81;;;16.67;100.00
42591;BME280;28218;53.342;-6.216;2023-10-19T12:24:12;97019.16;;;16.77;100.00
42591;BME280;28218;53.342;-6.216;2023-10-19T12:26:42;97010.16;;;16.86;100.00
42591;BME280;28218;53.342;-6.216;2023-10-19T12:29:11;97012.78;;;17.00;100.00
42591;BME280;28218;53.342;-6.216;2023-10-19T12:31:43;97006.66;;;17.14;100.00
42591;BME280;28218;53.342;-6.216;2023-10-19T12:34:11;97013.81;;;17.27;100.00
42591;BME280;28218;53.342;-6.216;2023-10-19T12:36:39;97006.56;;;17.41;100.00
42591;BME280;28218;53.342;-6.216;2023-10-19T12:39:13;97003.13;;;17.49;100.00
42591;BME280;28218;53.342;-6.216;2023-10-19T12:42:01;96997.56;;;17.59;100.00
42591;BME280;28218;53.342;-6.216;2023-10-19T12:44:30;96983.53;;;17.68;100.00
42591;BME280;28218;53.342;-6.216;2023-10-19T12:47:06;96979.16;;;17.72;100.00
42591;BME280;28218;53.342;-6.216;2023-10-19T12:49:37;96971.06;;;17.77;100.00
42591;BME280;28218;53.342;-6.216;2023-10-19T12:52:06;96964.53;;;17.83;100.00
42591;BME280;28218;53.342;-6.216;2023-10-19T12:54:36;96961.84;;;17.83;100.00
42591;BME280;28218;53.342;-6.216;2023-10-19T12:57:05;96961.75;;;17.88;100.00
42591;BME280;28218;53.342;-6.216;2023-10-19T12:59:34;96955.78;;;17.91;100.00
42591;BME280;28218;53.342;-6.216;2023-10-19T13:02:05;96954.56;;;17.97;100.00